Time;durP1;ratioP1;P1;durP2;ratioP2;P2;SDS_P1;SDS_P2;PMS_P1;PMS_P2;Temp;Humidity;BMP_temperature;BMP_pressure;BME280_temperature;BME280_humidity;BME280_pressure;Samples;Min_cycle;Max_cycle;Signal;HPM_P1;HPM_P2
2021/10/18 00:02:14;;;;;;;15.72;9.15;;;;;;;8.64;79.34;101164.70;1781152;80;21418;-83
2021/10/18 00:04:40;;;;;;;20.60;9.50;;;;;;;8.63;79.45;101165.67;1761450;80;21149;-83
2021/10/18 00:07:06;;;;;;;19.98;9.80;;;;;;;8.62;79.52;101165.83;1776816;80;21066;-83
2021/10/18 00:09:32;;;;;;;14.50;10.55;;;;;;;8.61;79.62;101169.45;1782574;80;21491;-83
2021/10/18 00:11:58;;;;;;;24.65;12.53;;;;;;;8.60;79.72;101166.44;1763078;80;21075;-84
2021/10/18 00:14:24;;;;;;;22.05;12.40;;;;;;;8.60;79.82;101165.11;1763406;79;21001;-85
2021/10/18 00:16:50;;;;;;;16.67;10.13;;;;;;;8.60;79.90;101163.78;1752816;81;21247;-84
2021/10/18 00:19:16;;;;;;;23.18;10.88;;;;;;;8.60;80.00;101167.77;1767487;79;20995;-83
2021/10/18 00:21:42;;;;;;;25.65;16.10;;;;;;;8.60;80.10;101165.11;1795552;79;21010;-83
2021/10/18 00:24:08;;;;;;;17.52;11.65;;;;;;;8.60;80.15;101172.60;1795907;79;21050;-83
2021/10/18 00:26:34;;;;;;;21.60;12.60;;;;;;;8.61;80.23;101173.45;1795191;79;21014;-83
2021/10/18 00:29:00;;;;;;;18.77;11.40;;;;;;;8.59;80.30;101168.25;1787613;79;21147;-83
2021/10/18 00:31:27;;;;;;;17.82;11.35;;;;;;;8.60;80.38;101171.27;1774346;80;21469;-84
2021/10/18 00:33:53;;;;;;;17.15;10.15;;;;;;;8.59;80.46;101171.40;1773933;80;21070;-83
2021/10/18 00:36:19;;;;;;;20.25;10.90;;;;;;;8.60;80.51;101172.60;1773891;80;21039;-83
2021/10/18 00:38:45;;;;;;;18.45;10.60;;;;;;;8.58;80.60;101171.07;1766542;80;21105;-83
2021/10/18 00:41:12;;;;;;;15.30;9.98;;;;;;;8.58;80.67;101169.74;1743565;81;21137;-84
2021/10/18 00:43:43;;;;;;;15.75;10.63;;;;;;;8.57;80.74;101161.41;1743772;82;21047;-84
2021/10/18 00:46:06;;;;;;;17.62;10.93;;;;;;;8.56;80.80;101174.34;1743621;81;21032;-84
2021/10/18 00:48:32;;;;;;;21.90;10.93;;;;;;;8.55;80.89;101171.34;1749545;80;21086;-83
2021/10/18 00:50:58;;;;;;;17.90;10.23;;;;;;;8.55;80.98;101176.67;1744698;82;21012;-84
2021/10/18 00:53:29;;;;;;;19.92;11.25;;;;;;;8.53;81.05;101170.99;1746412;82;21154;-84
2021/10/18 00:55:54;;;;;;;17.40;9.68;;;;;;;8.55;81.09;101172.68;1748656;80;21051;-85
2021/10/18 00:58:21;;;;;;;18.65;10.30;;;;;;;8.55;81.16;101178.00;1749120;81;21079;-84
2021/10/18 01:00:47;;;;;;;19.67;12.23;;;;;;;8.55;81.21;101172.68;1749628;80;21059;-84
2021/10/18 01:03:13;;;;;;;18.45;11.93;;;;;;;8.55;81.27;101170.83;1749827;81;21011;-84
2021/10/18 01:05:41;;;;;;;18.50;11.78;;;;;;;8.55;81.33;101167.36;1747205;81;21434;-83
2021/10/18 01:08:10;;;;;;;24.12;16.30;;;;;;;8.54;81.42;101163.86;1737983;82;21064;-84
2021/10/18 01:10:36;;;;;;;18.90;11.50;;;;;;;8.53;81.43;101172.80;1744678;82;21005;-84
2021/10/18 01:13:04;;;;;;;20.55;11.33;;;;;;;8.52;81.55;101170.62;1744610;81;21009;-84
2021/10/18 01:15:30;;;;;;;16.10;10.20;;;;;;;8.51;81.60;101172.92;1744672;82;21541;-84
2021/10/18 01:17:57;;;;;;;21.27;11.78;;;;;;;8.51;81.62;101182.75;1744303;82;21282;-84
2021/10/18 01:20:32;;;;;;;17.70;10.75;;;;;;;8.52;81.67;101187.06;1744614;82;21012;-84
2021/10/18 01:22:58;;;;;;;16.87;10.48;;;;;;;8.51;81.73;101180.90;1744263;82;21004;-84
2021/10/18 01:25:24;;;;;;;18.10;11.65;;;;;;;8.51;81.78;101180.09;1744589;82;21348;-85
2021/10/18 01:27:50;;;;;;;17.60;11.55;;;;;;;8.51;81.83;101179.58;1744666;82;21048;-84
2021/10/18 01:30:17;;;;;;;19.73;12.68;;;;;;;8.50;81.88;101183.72;1744862;82;21016;-84
2021/10/18 01:32:43;;;;;;;25.27;13.10;;;;;;;8.51;81.94;101188.06;1713058;82;21533;-83
2021/10/18 01:35:09;;;;;;;23.47;12.82;;;;;;;8.51;81.99;101177.43;1744508;82;21036;-84
2021/10/18 01:37:36;;;;;;;19.60;12.90;;;;;;;8.52;82.03;101179.94;1744765;82;21057;-84
2021/10/18 01:40:12;;;;;;;15.68;11.75;;;;;;;8.50;82.07;101183.23;1744441;82;21073;-83
2021/10/18 01:42:38;;;;;;;22.52;13.28;;;;;;;8.50;82.13;101183.23;1747528;82;21171;-84
2021/10/18 01:45:07;;;;;;;22.42;13.78;;;;;;;8.49;82.15;101178.88;1749614;81;20997;-83
2021/10/18 01:47:33;;;;;;;24.07;15.15;;;;;;;8.49;82.19;101181.54;1748883;81;21062;-83
2021/10/18 01:49:59;;;;;;;21.82;15.08;;;;;;;8.47;82.28;101179.52;1749591;80;21122;-83
2021/10/18 01:52:25;;;;;;;19.30;14.53;;;;;;;8.48;82.32;101186.50;1749871;81;21520;-83
2021/10/18 01:54:51;;;;;;;21.70;14.25;;;;;;;8.49;82.36;101184.20;1749700;81;21668;-83
2021/10/18 01:57:17;;;;;;;22.13;15.15;;;;;;;8.48;82.39;101183.84;1752036;80;21078;-83
2021/10/18 01:59:43;;;;;;;24.02;14.20;;;;;;;8.48;82.42;101183.84;1751055;80;21031;-83
2021/10/18 02:02:09;;;;;;;21.07;13.20;;;;;;;8.49;82.47;101177.55;1749523;81;20996;-82
2021/10/18 02:04:35;;;;;;;19.57;13.55;;;;;;;8.50;82.50;101187.22;1749626;82;21043;-83
2021/10/18 02:07:01;;;;;;;20.77;13.80;;;;;;;8.49;82.56;101189.52;1744704;82;21148;-83
2021/10/18 02:09:27;;;;;;;24.98;14.10;;;;;;;8.48;82.59;101193.14;1744578;81;20989;-83
2021/10/18 02:11:53;;;;;;;25.20;14.45;;;;;;;8.47;82.61;101190.16;1744774;81;20989;-83
2021/10/18 02:14:19;;;;;;;25.20;14.78;;;;;;;8.48;82.68;101193.14;1744538;81;20965;-84
2021/10/18 02:19:31;;;;;;;20.60;14.05;;;;;;;8.52;82.73;101185.25;1823479;77;28615;-84
2021/10/18 02:21:58;;;;;;;20.60;13.90;;;;;;;8.51;82.77;101186.73;1797907;79;20993;-84
2021/10/18 02:24:24;;;;;;;23.07;14.43;;;;;;;8.50;82.81;101189.87;1797583;79;21703;-85
2021/10/18 02:26:50;;;;;;;20.45;14.60;;;;;;;8.49;82.90;101193.50;1797945;79;21018;-84
2021/10/18 02:29:16;;;;;;;21.75;14.95;;;;;;;8.48;82.93;101190.97;1797988;79;20998;-84
2021/10/18 02:31:42;;;;;;;21.35;15.23;;;;;;;8.48;82.96;101193.63;1797676;79;20978;-84
2021/10/18 02:34:08;;;;;;;28.52;17.50;;;;;;;8.48;83.02;101193.14;1798078;79;21012;-84
2021/10/18 02:36:34;;;;;;;29.70;22.80;;;;;;;8.48;83.05;101190.97;1797948;79;21057;-84
2021/10/18 02:39:00;;;;;;;22.85;17.02;;;;;;;8.47;83.07;101190.16;1798033;79;20983;-83
2021/10/18 02:41:26;;;;;;;30.40;22.60;;;;;;;8.46;83.12;101189.80;1810172;78;20947;-85
2021/10/18 02:43:53;;;;;;;34.75;21.55;;;;;;;8.44;83.15;101182.43;1758379;81;21012;-84
2021/10/18 02:46:19;;;;;;;25.43;18.52;;;;;;;8.43;83.18;101182.09;1803259;79;20969;-85
2021/10/18 02:48:45;;;;;;;30.02;16.27;;;;;;;8.43;83.22;101182.09;1803166;79;21144;-85
2021/10/18 02:51:11;;;;;;;25.62;16.42;;;;;;;8.44;83.24;101186.41;1803330;79;21021;-85
2021/10/18 02:53:37;;;;;;;24.75;15.38;;;;;;;8.44;83.26;101190.41;1758330;81;21495;-84
2021/10/18 02:56:03;;;;;;;27.45;15.93;;;;;;;8.44;83.29;101189.59;1803166;79;21024;-85
2021/10/18 02:58:29;;;;;;;21.90;16.10;;;;;;;8.44;83.31;101199.70;1803157;79;20971;-85
2021/10/18 03:00:55;;;;;;;25.62;16.48;;;;;;;8.44;83.35;101197.05;1758239;81;21132;-85
2021/10/18 03:03:21;;;;;;;24.23;16.12;;;;;;;8.44;83.36;101198.38;1803104;79;21346;-84
2021/10/18 03:05:47;;;;;;;24.40;16.70;;;;;;;8.43;83.39;101201.19;1757814;81;21105;-85
2021/10/18 03:08:13;;;;;;;27.35;15.93;;;;;;;8.42;83.40;101209.64;1803387;79;21461;-84
2021/10/18 03:10:42;;;;;;;30.62;15.75;;;;;;;8.42;83.45;101203.00;1758044;81;21038;-84
2021/10/18 03:13:09;;;;;;;23.13;16.63;;;;;;;8.40;83.48;101210.28;1803587;79;21139;-84
2021/10/18 03:15:35;;;;;;;25.72;18.00;;;;;;;8.40;83.50;101207.63;1758025;81;21079;-84
2021/10/18 03:18:01;;;;;;;26.95;19.50;;;;;;;8.42;83.54;101213.63;1801232;79;21361;-84
2021/10/18 03:20:27;;;;;;;28.10;17.27;;;;;;;8.43;83.56;101206.02;1794261;80;21434;-84
2021/10/18 03:22:53;;;;;;;27.42;18.77;;;;;;;8.41;83.57;101217.26;1794399;80;21564;-84
2021/10/18 03:25:20;;;;;;;28.50;21.68;;;;;;;8.41;83.61;101211.09;1749950;82;21705;-84
2021/10/18 03:27:46;;;;;;;26.77;17.60;;;;;;;8.41;83.66;101214.59;1794790;80;21027;-84
2021/10/18 03:30:12;;;;;;;21.97;14.85;;;;;;;8.40;83.68;101218.26;1794191;80;21044;-84
2021/10/18 03:32:38;;;;;;;24.47;15.50;;;;;;;8.39;83.73;101213.91;1793670;80;20968;-84
2021/10/18 03:35:05;;;;;;;23.15;15.80;;;;;;;8.41;83.75;101221.24;1816292;79;21007;-84
2021/10/18 03:37:32;;;;;;;23.87;15.83;;;;;;;8.40;83.78;101223.58;1816424;79;21656;-84
2021/10/18 03:39:58;;;;;;;26.30;15.30;;;;;;;8.41;83.80;101227.89;1749723;82;21441;-84
2021/10/18 03:42:24;;;;;;;21.70;14.23;;;;;;;8.43;83.84;101235.74;1777071;80;20997;-84
2021/10/18 03:44:50;;;;;;;24.00;15.90;;;;;;;8.43;83.87;101231.27;1762504;81;21083;-84
2021/10/18 03:47:16;;;;;;;22.22;15.15;;;;;;;8.43;83.90;101225.95;1762475;81;21055;-83
2021/10/18 03:49:42;;;;;;;20.52;14.90;;;;;;;8.44;83.92;101228.95;1762217;81;21106;-84
2021/10/18 03:52:08;;;;;;;26.00;16.05;;;;;;;8.43;83.94;101233.93;1762659;81;21032;-83
2021/10/18 03:54:34;;;;;;;21.25;15.00;;;;;;;8.43;83.97;101231.27;1762596;81;21465;-83
2021/10/18 03:57:00;;;;;;;19.30;14.53;;;;;;;8.43;83.98;101223.30;1762604;81;21000;-83
2021/10/18 03:59:26;;;;;;;20.82;15.28;;;;;;;8.43;84.01;101219.31;1762511;80;21031;-83
2021/10/18 04:01:52;;;;;;;21.02;15.88;;;;;;;8.44;84.04;101224.95;1762490;80;21118;-83
2021/10/18 04:04:19;;;;;;;29.52;17.52;;;;;;;8.44;84.06;101232.93;1762022;81;21083;-83
2021/10/18 04:06:45;;;;;;;25.88;19.40;;;;;;;8.45;84.08;101234.63;1762457;81;21015;-83
2021/10/18 04:09:12;;;;;;;28.62;20.45;;;;;;;8.45;84.14;101231.12;1762584;81;21392;-84
2021/10/18 04:11:39;;;;;;;30.15;19.92;;;;;;;8.45;84.14;101234.63;1762326;81;20996;-84
2021/10/18 04:14:08;;;;;;;29.52;21.52;;;;;;;8.47;84.15;101245.12;1762601;80;21330;-82
2021/10/18 04:16:34;;;;;;;25.25;17.48;;;;;;;8.46;84.20;101252.26;1732228;81;21039;-82
2021/10/18 04:19:01;;;;;;;23.47;17.62;;;;;;;8.48;84.20;101255.61;1777343;80;21504;-83
2021/10/18 04:21:27;;;;;;;25.55;17.00;;;;;;;8.48;84.20;101259.59;1769898;81;21525;-83
2021/10/18 04:23:53;;;;;;;24.35;16.15;;;;;;;8.47;84.22;101267.24;1770348;80;21857;-83
2021/10/18 04:26:19;;;;;;;21.25;15.18;;;;;;;8.48;84.23;101266.73;1770205;81;21310;-84
2021/10/18 04:28:45;;;;;;;26.75;15.93;;;;;;;8.49;84.26;101272.41;1770086;81;21004;-84
2021/10/18 04:31:11;;;;;;;24.57;17.02;;;;;;;8.48;84.27;101268.05;1770159;81;21125;-83
2021/10/18 04:33:37;;;;;;;25.77;17.00;;;;;;;8.46;84.31;101270.87;1770053;81;20992;-83
2021/10/18 04:36:03;;;;;;;27.58;18.07;;;;;;;8.46;84.31;101272.20;1770283;81;20991;-83
2021/10/18 04:38:29;;;;;;;41.68;21.30;;;;;;;8.46;84.33;101270.87;1770128;81;21087;-83
2021/10/18 04:40:56;;;;;;;37.78;21.97;;;;;;;8.46;84.35;101272.67;1770031;81;21043;-83
2021/10/18 04:43:22;;;;;;;32.65;21.55;;;;;;;8.45;84.35;101270.50;1789790;80;21034;-83
2021/10/18 04:45:48;;;;;;;27.55;19.65;;;;;;;8.45;84.36;101273.16;1791361;79;21031;-84
2021/10/18 04:48:14;;;;;;;31.42;21.70;;;;;;;8.45;84.38;101277.15;1791456;79;20991;-83
2021/10/18 04:50:40;;;;;;;31.20;19.85;;;;;;;8.44;84.39;101275.45;1791528;80;21484;-84
2021/10/18 04:53:06;;;;;;;33.92;24.65;;;;;;;8.46;84.42;101272.67;1791291;79;21543;-84
2021/10/18 04:55:33;;;;;;;33.78;23.35;;;;;;;8.45;84.42;101282.47;1790178;79;21031;-83
2021/10/18 04:58:01;;;;;;;36.42;23.90;;;;;;;8.45;84.43;101286.45;1715948;83;21104;-83
2021/10/18 05:00:29;;;;;;;37.70;25.68;;;;;;;8.45;84.44;101287.78;1738534;82;21012;-83
2021/10/18 05:02:55;;;;;;;34.83;21.65;;;;;;;8.47;84.44;101287.18;1728487;81;21128;-83
2021/10/18 05:05:22;;;;;;;27.55;20.02;;;;;;;8.46;84.44;101284.16;1724051;81;21063;-83
2021/10/18 05:08:07;;;;;;;30.40;19.87;;;;;;;8.44;84.44;101283.44;1693096;84;21580;-83
2021/10/18 05:10:35;;;;;;;31.45;19.32;;;;;;;8.43;84.44;101288.42;1697956;83;21488;-83
2021/10/18 05:13:01;;;;;;;31.77;19.15;;;;;;;8.42;84.45;101285.40;1703491;83;21110;-83
2021/10/18 05:15:27;;;;;;;28.67;17.98;;;;;;;8.43;84.48;101289.75;1694119;83;21087;-83
2021/10/18 05:17:53;;;;;;;26.82;18.48;;;;;;;8.44;84.49;101294.06;1722709;83;21092;-83
2021/10/18 05:20:19;;;;;;;31.68;18.65;;;;;;;8.46;84.49;101299.27;1706753;81;21761;-83
2021/10/18 05:22:46;;;;;;;30.37;17.70;;;;;;;8.45;84.50;101305.06;1693906;84;21512;-83
2021/10/18 05:25:12;;;;;;;26.33;17.42;;;;;;;8.43;84.50;101300.38;1744188;81;21536;-83
2021/10/18 05:27:38;;;;;;;28.07;17.75;;;;;;;8.42;84.51;101306.66;1722744;83;22794;-84
2021/10/18 05:30:05;;;;;;;25.68;16.90;;;;;;;8.41;84.49;101307.63;1703348;82;21016;-83
2021/10/18 05:32:32;;;;;;;24.77;17.32;;;;;;;8.41;84.52;101310.28;1707775;83;21105;-83
2021/10/18 05:34:58;;;;;;;25.65;16.67;;;;;;;8.39;84.55;101313.58;1709188;83;21078;-83
2021/10/18 05:37:24;;;;;;;32.05;21.50;;;;;;;8.40;84.55;101313.94;1723875;82;21050;-84
2021/10/18 05:39:50;;;;;;;36.88;24.98;;;;;;;8.41;84.55;101319.59;1721913;82;21484;-84
2021/10/18 05:42:16;;;;;;;32.58;23.62;;;;;;;8.41;84.56;101322.25;1720335;82;21011;-83
2021/10/18 05:44:42;;;;;;;30.52;22.67;;;;;;;8.42;84.57;101325.27;1721499;82;21033;-82
2021/10/18 05:47:08;;;;;;;29.12;21.57;;;;;;;8.42;84.60;101324.42;1719235;83;21066;-84
2021/10/18 05:49:35;;;;;;;26.30;18.40;;;;;;;8.41;84.60;101323.58;1724363;81;21007;-83
2021/10/18 05:52:02;;;;;;;25.40;16.12;;;;;;;8.41;84.62;101325.39;1695044;84;21166;-84
2021/10/18 05:54:29;;;;;;;23.00;15.85;;;;;;;8.39;84.60;101332.19;1724077;82;21059;-83
2021/10/18 05:56:55;;;;;;;26.05;15.55;;;;;;;8.39;84.63;101332.19;1753899;81;21000;-83
2021/10/18 05:59:21;;;;;;;22.25;15.58;;;;;;;8.38;84.63;101330.48;1723917;82;21062;-83
2021/10/18 06:01:47;;;;;;;25.15;15.80;;;;;;;8.40;84.67;101335.69;1695265;83;21044;-84
2021/10/18 06:04:13;;;;;;;22.30;14.98;;;;;;;8.41;84.68;101336.02;1711671;83;22046;-83
2021/10/18 06:06:39;;;;;;;24.82;13.55;;;;;;;8.41;84.68;101343.51;1752239;80;21657;-84
2021/10/18 06:09:05;;;;;;;20.97;13.60;;;;;;;8.42;84.67;101347.86;1724091;82;21508;-84
2021/10/18 06:11:32;;;;;;;21.45;15.38;;;;;;;8.41;84.69;101347.50;1707734;83;21369;-83
2021/10/18 06:13:58;;;;;;;19.87;13.50;;;;;;;8.42;84.70;101353.66;1696633;82;21062;-83
2021/10/18 06:16:24;;;;;;;20.15;14.00;;;;;;;8.41;84.73;101358.61;1697281;83;21083;-83
2021/10/18 06:18:50;;;;;;;24.77;15.32;;;;;;;8.40;84.72;101361.78;1698389;83;21003;-83
2021/10/18 06:21:16;;;;;;;24.60;20.12;;;;;;;8.41;84.71;101364.77;1705657;83;20991;-83
2021/10/18 06:23:43;;;;;;;32.83;23.47;;;;;;;8.41;84.74;101364.77;1708920;82;21093;-83
2021/10/18 06:26:10;;;;;;;28.65;22.32;;;;;;;8.40;84.75;101367.09;1734571;82;21441;-83
2021/10/18 06:28:38;;;;;;;30.62;21.73;;;;;;;8.41;84.75;101378.06;1734184;82;21238;-83
2021/10/18 06:31:05;;;;;;;27.73;16.35;;;;;;;8.42;84.75;101371.78;1782574;79;21472;-83
2021/10/18 06:33:31;;;;;;;28.38;14.68;;;;;;;8.43;84.74;101370.81;1781888;79;21094;-83
2021/10/18 06:35:57;;;;;;;20.20;13.85;;;;;;;8.45;84.78;101378.16;1781882;80;20991;-83
2021/10/18 06:38:24;;;;;;;20.12;13.03;;;;;;;8.45;84.77;101375.98;1782407;79;21083;-84
2021/10/18 06:40:50;;;;;;;19.92;13.85;;;;;;;8.46;84.78;101378.52;1781908;80;21093;-82
2021/10/18 06:43:17;;;;;;;18.07;12.25;;;;;;;8.47;84.79;101381.55;1793985;79;21376;-83
2021/10/18 06:45:45;;;;;;;19.15;12.50;;;;;;;8.46;84.79;101390.48;1806198;79;21030;-83
2021/10/18 06:48:13;;;;;;;15.80;12.33;;;;;;;8.48;84.79;101387.19;1813986;79;21058;-82
2021/10/18 06:50:39;;;;;;;22.22;12.25;;;;;;;8.48;84.81;101392.52;1806094;79;20975;-84
2021/10/18 06:53:19;;;;;;;15.58;11.73;;;;;;;8.50;84.81;101394.56;1786792;79;21172;-83
2021/10/18 06:55:45;;;;;;;23.25;11.40;;;;;;;8.51;84.82;101398.89;1792964;79;20991;-84
2021/10/18 06:58:11;;;;;;;19.75;12.03;;;;;;;8.52;84.81;101400.58;1734355;82;21239;-84
2021/10/18 07:00:37;;;;;;;18.75;12.23;;;;;;;8.55;84.84;101399.98;1791252;79;21038;-84
2021/10/18 07:03:03;;;;;;;15.63;10.88;;;;;;;8.56;84.82;101399.83;1801096;79;21543;-84
2021/10/18 07:05:29;;;;;;;19.98;11.30;;;;;;;8.56;84.84;101400.31;1711363;82;21796;-84
2021/10/18 07:07:56;;;;;;;26.10;15.83;;;;;;;8.57;84.83;101404.66;1705065;84;21145;-84
2021/10/18 07:10:22;;;;;;;20.25;13.55;;;;;;;8.57;84.81;101403.34;1741780;79;21066;-84
2021/10/18 07:12:47;;;;;;;23.52;17.95;;;;;;;8.57;84.81;101403.34;1783788;79;20890;-83
2021/10/18 07:15:13;;;;;;;19.37;13.65;;;;;;;8.58;84.81;101405.03;1782983;79;21036;-84
2021/10/18 07:17:40;;;;;;;21.52;13.48;;;;;;;8.57;84.80;101401.52;1790163;79;21055;-84
2021/10/18 07:20:07;;;;;;;19.73;13.95;;;;;;;8.60;84.82;101409.71;1774602;79;20984;-84
2021/10/18 07:22:56;;;;;;;17.92;12.33;;;;;;;8.66;84.83;101407.84;1783009;80;20977;-83
2021/10/18 07:25:05;;;;;;;20.27;12.50;;;;;;;8.69;84.82;101408.94;1763950;80;21131;-83
2021/10/18 07:27:31;;;;;;;18.77;13.38;;;;;;;8.71;84.80;101409.63;1763201;80;21592;-84
2021/10/18 07:29:57;;;;;;;20.40;13.55;;;;;;;8.73;84.81;101418.30;1763324;80;21119;-84
2021/10/18 07:32:26;;;;;;;24.20;13.35;;;;;;;8.74;84.80;101417.34;1773833;79;21094;-82
2021/10/18 07:34:55;;;;;;;23.62;14.35;;;;;;;8.78;84.81;101421.42;1779035;80;21084;-84
2021/10/18 07:37:26;;;;;;;22.25;15.70;;;;;;;8.79;84.78;101426.63;1742353;80;21034;-86
2021/10/18 07:39:48;;;;;;;23.80;14.80;;;;;;;8.80;84.79;101433.59;1752272;80;21528;-85
2021/10/18 07:42:14;;;;;;;18.30;14.13;;;;;;;8.82;84.78;101426.83;1741954;81;21885;-84
2021/10/18 07:44:41;;;;;;;25.23;15.80;;;;;;;8.81;84.76;101434.45;1742775;80;21034;-83
2021/10/18 07:47:07;;;;;;;28.07;16.37;;;;;;;8.81;84.77;101434.45;1796783;78;21054;-84
2021/10/18 07:49:38;;;;;;;25.27;17.35;;;;;;;8.83;84.77;101435.17;1797747;78;21010;-83
2021/10/18 07:52:05;;;;;;;29.20;17.67;;;;;;;8.84;84.75;101427.53;1804056;78;20985;-83
2021/10/18 07:54:31;;;;;;;24.52;18.00;;;;;;;8.86;84.75;101429.58;1821133;77;21103;-83
2021/10/18 07:56:57;;;;;;;29.57;19.07;;;;;;;8.86;84.76;101434.91;1807486;78;20981;-84
2021/10/18 07:59:23;;;;;;;26.12;20.57;;;;;;;8.86;84.74;101444.22;1806972;78;21557;-84
2021/10/18 08:01:49;;;;;;;24.85;18.40;;;;;;;8.84;84.71;101438.17;1800494;78;21056;-85
2021/10/18 08:04:16;;;;;;;23.90;17.70;;;;;;;8.85;84.71;101443.85;1736249;81;21000;-84
2021/10/18 08:06:42;;;;;;;24.70;16.62;;;;;;;8.84;84.69;101443.48;1770427;80;21082;-83
2021/10/18 08:09:09;;;;;;;29.90;15.63;;;;;;;8.83;84.70;101447.14;1803726;78;21019;-83
2021/10/18 08:11:35;;;;;;;24.82;15.85;;;;;;;8.83;84.66;101447.14;1803421;78;21002;-83
2021/10/18 08:14:01;;;;;;;26.20;16.75;;;;;;;8.84;84.67;101450.14;1801358;78;21025;-83
2021/10/18 08:16:27;;;;;;;26.93;17.30;;;;;;;8.83;84.64;101443.16;1801136;78;21610;-83
2021/10/18 08:18:53;;;;;;;30.23;17.50;;;;;;;8.81;84.65;101447.75;1803227;78;21851;-84
2021/10/18 08:21:20;;;;;;;30.27;19.40;;;;;;;8.81;84.67;101447.75;1792052;78;20971;-83
2021/10/18 08:23:46;;;;;;;30.90;21.37;;;;;;;8.81;84.66;101455.72;1797567;78;21001;-82
2021/10/18 08:26:12;;;;;;;47.53;23.02;;;;;;;8.84;84.68;101458.11;1814410;78;21078;-83
2021/10/18 08:28:38;;;;;;;56.60;26.87;;;;;;;8.85;84.68;101455.82;1799775;78;20965;-84
2021/10/18 08:31:04;;;;;;;38.45;23.02;;;;;;;8.87;84.69;101449.38;1801681;78;21140;-82
2021/10/18 08:33:30;;;;;;;41.92;22.67;;;;;;;8.93;84.71;101453.34;1804931;78;21523;-84
2021/10/18 08:35:56;;;;;;;56.35;29.23;;;;;;;8.97;84.70;101456.09;1797657;78;21038;-81
2021/10/18 08:41:16;;;;;;;49.08;27.85;;;;;;;9.10;84.72;101454.05;1745329;81;21035;-82
2021/10/18 08:46:07;;;;;;;45.20;28.57;;;;;;;9.34;84.72;101453.20;1796133;78;21078;-81
2021/10/18 08:48:34;;;;;;;39.48;24.47;;;;;;;9.40;84.71;101461.13;1815065;78;21655;-80
2021/10/18 08:51:00;;;;;;;36.08;21.12;;;;;;;9.42;84.70;101458.70;1802551;78;21010;-81
2021/10/18 08:53:26;;;;;;;34.33;21.85;;;;;;;9.40;84.66;101461.97;1805183;78;21081;-81
2021/10/18 08:55:52;;;;;;;32.55;19.85;;;;;;;9.42;84.68;101462.69;1803869;77;21190;-82
2021/10/18 08:58:18;;;;;;;31.45;20.52;;;;;;;9.42;84.65;101469.34;1809396;78;21053;-82
2021/10/18 09:00:53;;;;;;;25.72;17.48;;;;;;;9.43;84.66;101472.83;1803261;78;21011;-82
2021/10/18 09:03:32;;;;;;;24.63;15.38;;;;;;;9.43;84.66;101464.35;1812162;78;21038;-83
2021/10/18 09:06:17;;;;;;;26.68;15.95;;;;;;;9.42;84.63;101466.69;1806329;78;21468;-82
2021/10/18 09:08:48;;;;;;;18.00;15.08;;;;;;;9.44;84.62;101473.19;1801311;78;21703;-83
2021/10/18 09:11:24;;;;;;;22.22;15.15;;;;;;;9.46;84.61;101478.72;1804525;78;20990;-82
2021/10/18 09:13:56;;;;;;;21.65;14.68;;;;;;;9.50;84.59;101472.15;1804672;78;21040;-83
2021/10/18 09:16:43;;;;;;;21.48;14.40;;;;;;;9.51;84.58;101472.52;1812385;78;21044;-82
2021/10/18 09:19:18;;;;;;;21.73;13.10;;;;;;;9.57;84.57;101470.30;1745222;81;21094;-83
2021/10/18 09:21:54;;;;;;;17.50;12.25;;;;;;;9.62;84.55;101470.22;1773728;79;21667;-82
2021/10/18 09:24:36;;;;;;;24.15;15.53;;;;;;;9.67;84.52;101465.83;1775917;79;21060;-81
2021/10/18 09:27:07;;;;;;;18.40;14.95;;;;;;;9.72;84.48;101465.75;1771715;79;21063;-81
2021/10/18 09:29:49;;;;;;;20.90;15.93;;;;;;;9.78;84.44;101467.03;1777092;79;21078;-81
2021/10/18 09:32:30;;;;;;;20.57;11.75;;;;;;;9.82;84.40;101469.74;1779560;79;21004;-80
2021/10/18 09:35:11;;;;;;;16.45;9.60;;;;;;;9.91;84.37;101468.92;1783966;79;21164;-80
2021/10/18 09:37:39;;;;;;;14.60;9.18;;;;;;;10.03;84.33;101472.64;1785144;79;21027;-80
2021/10/18 09:40:06;;;;;;;14.33;8.15;;;;;;;10.18;84.31;101469.09;1784437;78;21084;-81
2021/10/18 09:42:32;;;;;;;14.90;8.48;;;;;;;10.31;84.26;101470.97;1774796;79;21773;-80
2021/10/18 10:56:38;;;;;;;17.05;10.30;;;;;;;11.51;81.43;101448.77;1695193;83;21102;-81
2021/10/18 10:59:21;;;;;;;12.00;6.50;;;;;;;11.63;81.33;101448.06;1726911;82;21086;-81
2021/10/18 11:02:06;;;;;;;18.92;10.55;;;;;;;11.71;81.19;101453.53;1715473;83;20994;-83
2021/10/18 11:04:37;;;;;;;16.27;8.00;;;;;;;11.77;81.07;101452.43;1719114;82;21519;-83
2021/10/18 11:07:16;;;;;;;14.00;6.97;;;;;;;11.92;80.97;101448.24;1718599;82;21748;-82
2021/10/18 11:09:54;;;;;;;11.83;6.67;;;;;;;11.93;80.84;101452.58;1730388;82;21035;-81
2021/10/18 11:12:30;;;;;;;10.70;6.80;;;;;;;11.96;80.74;101455.46;1718372;83;21532;-81
2021/10/18 11:15:01;;;;;;;13.83;7.08;;;;;;;11.89;80.62;101447.71;1707294;83;21019;-81
2021/10/18 11:17:32;;;;;;;13.62;6.30;;;;;;;11.83;80.51;101440.27;1723097;82;21023;-81
2021/10/18 11:20:06;;;;;;;10.80;6.30;;;;;;;11.80;80.37;101444.59;1723370;82;21103;-81
2021/10/18 11:22:42;;;;;;;11.43;6.20;;;;;;;11.82;80.30;101438.62;1721684;82;21673;-81
2021/10/18 11:25:15;;;;;;;12.35;5.78;;;;;;;11.85;80.18;101444.99;1721379;81;21338;-81
2021/10/18 11:27:43;;;;;;;12.30;5.20;;;;;;;11.84;80.03;101447.31;1711795;82;21066;-81
2021/10/18 11:30:15;;;;;;;10.98;5.53;;;;;;;11.84;79.94;101445.98;1687960;84;21111;-81
2021/10/18 11:32:42;;;;;;;8.65;5.00;;;;;;;11.87;79.83;101448.34;1694298;84;21010;-81
2021/10/18 11:35:17;;;;;;;9.35;5.10;;;;;;;11.88;79.68;101444.69;1692875;84;21070;-81
2021/10/18 11:38:00;;;;;;;10.90;5.33;;;;;;;11.87;79.54;101438.98;1676478;84;21826;-81
2021/10/18 11:40:38;;;;;;;9.98;6.25;;;;;;;11.84;79.41;101436.62;1722497;82;21008;-82
2021/10/18 11:43:07;;;;;;;11.20;6.72;;;;;;;11.83;79.30;101437.11;1748791;81;21527;-81
2021/10/18 11:45:40;;;;;;;16.53;8.53;;;;;;;11.88;79.23;101439.34;1738609;80;21024;-82
2021/10/18 11:48:12;;;;;;;16.05;7.30;;;;;;;11.92;79.16;101442.89;1696720;81;21035;-80
2021/10/18 11:50:40;;;;;;;17.75;7.62;;;;;;;11.95;79.06;101437.23;1733117;81;21552;-82
2021/10/18 11:53:19;;;;;;;11.65;6.35;;;;;;;12.02;78.94;101436.13;1705637;83;20984;-82
2021/10/18 11:55:52;;;;;;;11.40;5.65;;;;;;;12.07;78.84;101433.81;1723204;83;21032;-82
2021/10/18 11:58:21;;;;;;;11.50;7.03;;;;;;;12.09;78.73;101426.49;1693730;83;21041;-82
2021/10/18 12:00:47;;;;;;;10.98;7.97;;;;;;;12.17;78.69;101420.37;1694400;84;21147;-82
2021/10/18 12:03:17;;;;;;;11.45;8.05;;;;;;;12.30;78.61;101417.63;1703241;83;21129;-82
2021/10/18 12:05:48;;;;;;;;;;;;;;;12.42;78.50;101416.86;1725522;83;21574;-82
2021/10/18 12:08:17;;;;;;;13.43;7.08;;;;;;;12.42;78.40;101416.86;1713724;83;20157;-82
2021/10/18 12:10:46;;;;;;;9.93;5.70;;;;;;;12.44;78.31;101418.41;1714985;83;21079;-82
2021/10/18 12:13:27;;;;;;;10.00;6.08;;;;;;;12.47;78.28;101420.77;1723264;81;21035;-82
2021/10/18 12:15:57;;;;;;;10.38;6.53;;;;;;;12.45;78.18;101412.03;1719645;83;21514;-82
2021/10/18 12:18:30;;;;;;;15.93;7.75;;;;;;;12.45;78.08;101412.03;1721682;81;21077;-82
2021/10/18 12:21:15;;;;;;;10.88;6.25;;;;;;;12.49;78.02;101422.77;1771173;79;21039;-82
2021/10/18 12:23:51;;;;;;;16.05;6.72;;;;;;;12.52;77.91;101423.78;1739800;81;21062;-82
2021/10/18 12:26:24;;;;;;;10.55;6.70;;;;;;;12.59;77.78;101424.52;1769931;79;21046;-82
2021/10/18 12:28:53;;;;;;;9.88;5.90;;;;;;;12.60;77.70;101422.16;1755740;81;21184;-82
2021/10/18 12:31:48;;;;;;;12.00;7.35;;;;;;;12.64;77.59;101424.38;1712416;82;21051;-82
2021/10/18 12:34:22;;;;;;;12.65;7.25;;;;;;;12.68;77.51;101427.57;1732765;82;21107;-82
2021/10/18 12:37:05;;;;;;;10.38;5.35;;;;;;;12.69;77.39;101422.57;1731757;82;21024;-80
2021/10/18 12:39:57;;;;;;;9.75;5.22;;;;;;;12.69;77.25;101421.23;1749963;82;21544;-79
2021/10/18 12:42:29;;;;;;;8.53;5.78;;;;;;;12.70;77.12;101418.38;1727615;81;21893;-79